createdAt,value
2018-03-01T00:00:52.292Z,63.96
2018-03-01T00:01:57.075Z,64.06
2018-03-01T00:03:01.864Z,64.37
2018-03-01T00:04:07.709Z,64.42
2018-03-01T00:05:13.537Z,64.51
2018-03-01T00:06:18.909Z,64.41
2018-03-01T00:07:24.135Z,64.53
2018-03-01T00:08:29.046Z,64.43
2018-03-01T00:09:33.980Z,64.37
2018-03-01T00:10:38.852Z,64.47
2018-03-01T00:11:43.793Z,64.74
2018-03-01T00:12:48.772Z,64.41
2018-03-01T00:13:54.185Z,64.46
2018-03-01T00:14:59.159Z,64.52
2018-03-01T00:16:04.264Z,64.21
2018-03-01T00:17:09.273Z,64.18
2018-03-01T00:18:14.226Z,64.19
2018-03-01T00:19:19.079Z,64.26
2018-03-01T00:20:25.297Z,64.28
2018-03-01T00:21:30.344Z,64.48
2018-03-01T00:22:39.100Z,64.66
2018-03-01T00:23:43.997Z,64.52
2018-03-01T00:24:49.233Z,64.49
2018-03-01T00:25:54.307Z,64.46
2018-03-01T00:26:59.348Z,64.60
2018-03-01T00:28:05.152Z,64.40
2018-03-01T00:29:10.046Z,64.32
2018-03-01T00:30:17.703Z,64.27
2018-03-01T00:31:22.772Z,64.42
2018-03-01T00:32:27.836Z,64.39
2018-03-01T00:33:33.367Z,64.46
2018-03-01T00:34:38.370Z,64.63
2018-03-01T00:35:43.492Z,64.68
2018-03-01T00:36:48.612Z,64.65
2018-03-01T00:37:53.711Z,64.68
2018-03-01T00:38:58.689Z,64.63
2018-03-01T00:40:04.593Z,64.55
2018-03-01T00:41:09.791Z,64.56
2018-03-01T00:42:14.924Z,64.51
2018-03-01T00:43:20.133Z,64.51
2018-03-01T00:44:25.205Z,64.55
2018-03-01T00:45:31.413Z,64.60
2018-03-01T00:46:37.369Z,64.68
2018-03-01T00:47:43.263Z,64.61
2018-03-01T00:48:48.529Z,64.68
2018-03-01T00:49:53.853Z,64.67
2018-03-01T00:50:59.837Z,64.60
2018-03-01T00:52:05.429Z,64.75
2018-03-01T00:53:10.484Z,64.65
2018-03-01T00:54:15.548Z,64.60
2018-03-01T00:55:20.806Z,64.43
2018-03-01T00:56:26.078Z,64.52
2018-03-01T00:57:31.225Z,64.49
2018-03-01T00:58:36.515Z,64.71
2018-03-01T00:59:41.630Z,64.67
2018-03-01T01:00:47.952Z,64.71
2018-03-01T01:01:53.055Z,64.69
2018-03-01T01:02:58.225Z,64.66
2018-03-01T01:04:03.546Z,64.63
2018-03-01T01:05:09.133Z,64.58
2018-03-01T01:06:15.141Z,64.73
2018-03-01T01:07:20.369Z,64.76
2018-03-01T01:08:25.502Z,64.81
2018-03-01T01:09:30.788Z,64.92
2018-03-01T01:10:36.213Z,64.95
2018-03-01T01:11:41.656Z,64.70
2018-03-01T01:12:47.241Z,64.70
2018-03-01T01:13:52.846Z,64.82
2018-03-01T01:14:57.856Z,64.81
2018-03-01T01:16:03.558Z,64.71
2018-03-01T01:17:08.901Z,64.67
2018-03-01T01:18:14.118Z,64.35
2018-03-01T01:19:19.608Z,64.37
2018-03-01T01:20:26.401Z,64.28
2018-03-01T01:21:31.839Z,64.41
2018-03-01T01:22:37.624Z,64.36
2018-03-01T01:23:43.646Z,64.52
2018-03-01T01:24:48.636Z,64.49
2018-03-01T01:25:53.894Z,64.66
2018-03-01T01:26:59.226Z,65.00
2018-03-01T01:28:04.645Z,64.62
2018-03-01T01:29:10.579Z,64.57
2018-03-01T01:30:18.361Z,64.66
2018-03-01T01:31:24.295Z,64.53
2018-03-01T01:32:29.361Z,64.49
2018-03-01T01:33:34.758Z,64.47
2018-03-01T01:34:39.975Z,64.50
2018-03-01T01:35:45.019Z,64.52
2018-03-01T01:36:50.836Z,64.60
2018-03-01T01:37:56.033Z,64.60
2018-03-01T01:39:00.919Z,64.50
2018-03-01T01:40:05.868Z,64.75
2018-03-01T01:41:10.947Z,64.66
2018-03-01T01:42:17.346Z,64.66
2018-03-01T01:43:24.198Z,64.49
2018-03-01T01:44:30.415Z,64.75
2018-03-01T01:45:35.755Z,64.71
2018-03-01T01:46:40.554Z,64.87
2018-03-01T01:47:45.798Z,64.78
2018-03-01T01:48:51.050Z,64.54
2018-03-01T01:49:56.034Z,64.38
2018-03-01T01:51:05.499Z,64.31
2018-03-01T01:52:12.330Z,64.43
2018-03-01T01:53:17.566Z,64.32
2018-03-01T01:54:22.451Z,64.10
2018-03-01T01:55:28.516Z,64.19
2018-03-01T01:56:34.813Z,64.26
2018-03-01T01:57:39.928Z,64.41
2018-03-01T01:58:45.197Z,64.46
2018-03-01T01:59:50.102Z,64.34
2018-03-01T02:00:55.312Z,64.18
2018-03-01T02:02:01.671Z,64.22
2018-03-01T02:03:06.556Z,64.30
2018-03-01T02:04:11.341Z,64.54
2018-03-01T02:05:15.994Z,64.48
2018-03-01T02:06:22.324Z,64.62
2018-03-01T02:07:27.160Z,64.70
2018-03-01T02:08:32.328Z,64.49
2018-03-01T02:09:37.381Z,64.46
2018-03-01T02:10:42.325Z,64.29
2018-03-01T02:11:47.303Z,64.46
2018-03-01T02:12:52.299Z,64.41
2018-03-01T02:13:57.300Z,64.39
2018-03-01T02:15:04.692Z,64.51
2018-03-01T02:16:10.493Z,64.47
2018-03-01T02:18:41.965Z,64.80
2018-03-01T02:19:47.370Z,64.67
2018-03-01T02:20:52.496Z,64.77
2018-03-01T02:21:57.248Z,64.72
2018-03-01T02:23:03.589Z,64.87
2018-03-01T02:26:59.260Z,64.76
2018-03-01T02:28:15.469Z,64.89
2018-03-01T02:29:20.192Z,64.81
2018-03-01T02:30:25.917Z,64.70
2018-03-01T02:31:31.082Z,64.85
2018-03-01T02:32:36.090Z,64.78
2018-03-01T02:33:45.243Z,64.86
2018-03-01T02:34:50.616Z,64.97
2018-03-01T02:35:56.806Z,64.79
2018-03-01T02:37:04.252Z,64.83
2018-03-01T02:38:10.783Z,64.87
2018-03-01T02:39:16.787Z,65.00
2018-03-01T02:40:24.698Z,64.87
2018-03-01T02:41:29.478Z,64.93
2018-03-01T02:42:34.560Z,64.78
2018-03-01T02:43:39.331Z,64.84
2018-03-01T02:44:44.230Z,64.87
2018-03-01T02:45:49.616Z,64.88
2018-03-01T02:46:54.435Z,64.88
2018-03-01T02:48:10.988Z,64.86
2018-03-01T02:49:17.424Z,65.03
2018-03-01T02:50:22.277Z,65.02
2018-03-01T02:51:28.046Z,64.81
2018-03-01T02:52:35.326Z,64.90
2018-03-01T02:53:40.009Z,65.10
2018-03-01T02:54:45.735Z,65.13
2018-03-01T02:55:50.612Z,65.25
2018-03-01T02:56:55.438Z,64.91
2018-03-01T02:58:00.345Z,64.96
2018-03-01T02:59:06.239Z,65.04
2018-03-01T03:00:11.526Z,65.02
2018-03-01T03:01:18.288Z,64.85
2018-03-01T03:02:23.235Z,64.53
2018-03-01T03:03:29.621Z,64.54
2018-03-01T03:04:34.348Z,64.61
2018-03-01T03:05:39.914Z,64.74
2018-03-01T03:06:44.646Z,64.93
2018-03-01T03:07:51.099Z,64.63
2018-03-01T03:09:02.746Z,64.77
2018-03-01T03:10:09.400Z,64.61
2018-03-01T03:11:14.482Z,64.65
2018-03-01T03:12:20.106Z,64.57
2018-03-01T03:13:27.715Z,64.65
2018-03-01T03:14:41.648Z,64.67
2018-03-01T03:15:50.443Z,64.66
2018-03-01T03:16:58.212Z,64.78
2018-03-01T03:18:04.449Z,64.70
2018-03-01T03:19:09.010Z,65.08
2018-03-01T03:20:14.004Z,65.09
2018-03-01T03:21:20.736Z,65.10
2018-03-01T03:22:29.030Z,64.97
2018-03-01T03:23:38.068Z,64.95
2018-03-01T03:24:42.496Z,65.03
2018-03-01T03:25:48.252Z,64.79
2018-03-01T03:26:52.888Z,64.53
2018-03-01T03:27:57.513Z,64.80
2018-03-01T03:29:02.045Z,64.75
2018-03-01T03:30:08.187Z,64.68
2018-03-01T03:31:12.831Z,64.65
2018-03-01T03:32:36.545Z,64.72
2018-03-01T03:33:42.021Z,64.85
2018-03-01T03:34:46.463Z,64.83
2018-03-01T03:35:50.830Z,64.84
2018-03-01T03:37:14.843Z,64.73
2018-03-01T03:38:19.600Z,64.90
2018-03-01T03:39:35.536Z,64.91
2018-03-01T03:43:38.624Z,65.08
2018-03-01T03:44:43.300Z,65.17
2018-03-01T03:45:47.640Z,65.18
2018-03-01T03:46:52.410Z,65.22
2018-03-01T03:47:57.116Z,65.11
2018-03-01T03:49:03.458Z,64.99
2018-03-01T03:50:07.849Z,64.91
2018-03-01T03:51:12.735Z,65.01
2018-03-01T03:52:17.672Z,64.95
2018-03-01T03:53:22.069Z,64.83
2018-03-01T03:54:26.606Z,64.91
2018-03-01T03:55:32.014Z,64.86
2018-03-01T03:56:37.032Z,64.80
2018-03-01T03:57:41.353Z,65.55
2018-03-01T03:58:46.062Z,65.38
2018-03-01T03:59:50.604Z,66.33
2018-03-01T04:00:55.022Z,65.84
2018-03-01T04:02:00.069Z,67.18
2018-03-01T04:03:04.653Z,67.81
2018-03-01T04:04:09.255Z,67.59
2018-03-01T04:05:14.007Z,67.17
2018-03-01T04:06:18.671Z,67.19
2018-03-01T04:07:23.176Z,66.10
2018-03-01T04:08:27.447Z,67.86
2018-03-01T04:09:32.632Z,65.90
2018-03-01T04:10:37.464Z,66.73
2018-03-01T04:11:42.060Z,67.25
2018-03-01T04:12:46.489Z,70.23
2018-03-01T04:13:51.669Z,69.03
2018-03-01T04:14:56.049Z,69.52
2018-03-01T04:16:00.514Z,69.46
2018-03-01T04:17:04.986Z,71.15
2018-03-01T04:18:09.607Z,69.87
2018-03-01T04:19:14.352Z,68.90
2018-03-01T04:20:18.807Z,70.46
2018-03-01T04:21:23.274Z,68.83
2018-03-01T04:22:27.847Z,69.07
2018-03-01T04:23:32.424Z,65.58
2018-03-01T04:24:36.775Z,70.78
2018-03-01T04:25:41.783Z,67.30
2018-03-01T04:26:46.278Z,66.21
2018-03-01T04:27:50.918Z,66.56
2018-03-01T04:28:55.599Z,65.52
2018-03-01T04:30:00.325Z,66.46
2018-03-01T04:31:04.876Z,70.02
2018-03-01T04:32:09.809Z,68.41
2018-03-01T04:33:14.450Z,67.92
2018-03-01T04:34:19.087Z,65.93
2018-03-01T04:35:23.817Z,66.83
2018-03-01T04:36:28.616Z,65.74
2018-03-01T04:37:33.062Z,68.30
2018-03-01T04:38:37.841Z,66.42
2018-03-01T04:39:42.342Z,69.10
2018-03-01T04:40:46.645Z,69.85
2018-03-01T04:41:51.089Z,68.49
2018-03-01T04:42:55.540Z,69.23
2018-03-01T04:44:00.583Z,68.95
2018-03-01T04:45:07.223Z,68.68
2018-03-01T04:46:11.744Z,67.26
2018-03-01T04:47:16.292Z,69.20
2018-03-01T04:48:21.042Z,68.94
2018-03-01T04:49:26.054Z,69.44
2018-03-01T04:50:30.696Z,67.62
2018-03-01T04:51:36.709Z,67.89
2018-03-01T04:52:41.269Z,68.04
2018-03-01T04:53:45.823Z,68.08
2018-03-01T04:54:50.653Z,69.93
2018-03-01T04:55:55.337Z,66.63
2018-03-01T04:56:59.884Z,69.05
2018-03-01T04:58:04.683Z,68.14
2018-03-01T04:59:09.315Z,66.75
2018-03-01T05:00:15.301Z,66.54
2018-03-01T05:01:19.930Z,68.38
2018-03-01T05:02:25.442Z,67.96
2018-03-01T05:03:31.353Z,67.11
2018-03-01T05:04:37.801Z,67.25
2018-03-01T05:05:42.497Z,68.63
2018-03-01T05:06:47.650Z,66.90
2018-03-01T05:07:52.338Z,68.47
2018-03-01T05:08:56.863Z,69.90
2018-03-01T05:10:01.893Z,66.96
2018-03-01T05:11:06.599Z,68.97
2018-03-01T05:12:11.223Z,69.68
2018-03-01T05:13:17.041Z,70.30
2018-03-01T05:14:21.873Z,70.96
2018-03-01T05:15:26.901Z,71.37
2018-03-01T05:16:32.048Z,71.25
2018-03-01T05:17:36.701Z,68.79
2018-03-01T05:18:41.447Z,68.81
2018-03-01T05:19:46.021Z,70.48
2018-03-01T05:20:50.689Z,69.97
2018-03-01T05:21:55.422Z,68.51
2018-03-01T05:23:00.514Z,68.16
2018-03-01T05:24:05.176Z,68.71
2018-03-01T05:25:10.297Z,68.02
2018-03-01T05:26:14.829Z,66.65
2018-03-01T05:27:19.646Z,69.07
2018-03-01T05:28:24.593Z,67.20
2018-03-01T05:29:29.479Z,68.87
2018-03-01T05:30:34.585Z,68.03
2018-03-01T05:31:39.417Z,68.64
2018-03-01T05:32:44.124Z,68.48
2018-03-01T05:33:49.365Z,69.00
2018-03-01T05:34:55.580Z,67.93
2018-03-01T05:36:00.648Z,66.84
2018-03-01T05:37:05.478Z,68.35
2018-03-01T05:38:10.496Z,69.69
2018-03-01T05:39:15.250Z,68.49
2018-03-01T05:40:22.545Z,67.16
2018-03-01T05:41:27.081Z,70.29
2018-03-01T05:42:31.885Z,67.56
2018-03-01T05:43:38.056Z,68.93
2018-03-01T05:44:43.355Z,69.22
2018-03-01T05:45:48.940Z,67.47
2018-03-01T05:46:54.003Z,69.54
2018-03-01T05:47:59.351Z,68.78
2018-03-01T05:49:05.132Z,67.32
2018-03-01T05:50:10.129Z,67.13
2018-03-01T05:51:15.072Z,67.55
2018-03-01T05:52:20.258Z,66.78
2018-03-01T05:53:25.959Z,70.92
2018-03-01T05:54:32.215Z,69.83
2018-03-01T05:55:37.151Z,67.09
2018-03-01T05:56:42.372Z,67.34
2018-03-01T05:57:47.553Z,69.38
2018-03-01T05:58:52.853Z,67.67
2018-03-01T05:59:59.276Z,68.36
2018-03-01T06:01:04.644Z,67.72
2018-03-01T06:02:09.918Z,68.95
2018-03-01T06:03:15.595Z,67.52
2018-03-01T06:04:21.202Z,67.97
2018-03-01T06:05:26.655Z,67.20
2018-03-01T06:06:32.235Z,67.69
2018-03-01T06:07:37.484Z,67.22
2018-03-01T06:08:43.501Z,66.33
2018-03-01T06:09:49.329Z,66.36
2018-03-01T06:10:54.647Z,66.04
2018-03-01T06:11:59.984Z,66.47
2018-03-01T06:13:05.250Z,68.40
2018-03-01T06:14:10.317Z,67.60
2018-03-01T06:15:16.470Z,66.31
2018-03-01T06:16:21.679Z,65.60
2018-03-01T06:17:27.198Z,67.93
2018-03-01T06:18:32.425Z,67.81
2018-03-01T06:19:37.501Z,65.93
2018-03-01T06:20:42.659Z,66.05
2018-03-01T06:21:48.025Z,65.71
2018-03-01T06:22:53.750Z,65.79
2018-03-01T06:23:59.037Z,65.32
2018-03-01T06:25:05.002Z,65.66
2018-03-01T06:26:10.063Z,65.81
2018-03-01T06:27:15.060Z,65.57
2018-03-01T06:28:20.271Z,65.98
2018-03-01T06:29:25.899Z,65.37
2018-03-01T06:30:31.190Z,65.01
2018-03-01T06:31:36.354Z,64.93
2018-03-01T06:32:43.060Z,64.97
2018-03-01T06:33:48.414Z,65.13
2018-03-01T06:34:53.666Z,65.49
2018-03-01T06:35:59.334Z,65.21
2018-03-01T06:37:04.652Z,65.39
2018-03-01T06:38:09.734Z,65.21
2018-03-01T06:39:14.940Z,65.04
2018-03-01T06:40:20.113Z,65.00
2018-03-01T06:41:25.269Z,65.00
2018-03-01T06:42:30.475Z,64.84
2018-03-01T06:43:35.602Z,64.85
2018-03-01T06:44:40.747Z,64.64
2018-03-01T06:45:46.736Z,64.67
2018-03-01T06:46:52.557Z,64.88
2018-03-01T06:47:57.388Z,64.99
2018-03-01T06:49:02.970Z,65.10
2018-03-01T06:50:08.016Z,65.06
2018-03-01T06:51:13.040Z,64.95
2018-03-01T06:52:18.100Z,64.77
2018-03-01T06:54:29.640Z,65.29
2018-03-01T06:55:35.035Z,65.29
2018-03-01T06:56:40.375Z,65.14
2018-03-01T06:57:45.629Z,65.00
2018-03-01T06:58:50.771Z,64.90
2018-03-01T06:59:57.336Z,64.97
2018-03-01T07:01:02.647Z,64.75
2018-03-01T07:02:08.218Z,64.26
2018-03-01T07:03:13.461Z,64.27
2018-03-01T07:04:18.585Z,64.36
2018-03-01T07:05:23.670Z,64.17
2018-03-01T07:06:29.150Z,64.08
2018-03-01T07:07:34.188Z,63.94
2018-03-01T07:08:39.334Z,63.84
2018-03-01T07:09:44.862Z,63.47
2018-03-01T07:10:50.080Z,63.93
2018-03-01T07:11:55.230Z,63.65
2018-03-01T07:13:00.258Z,63.11
2018-03-01T07:14:05.401Z,62.95
2018-03-01T07:15:10.709Z,62.87
2018-03-01T07:16:15.982Z,62.89
2018-03-01T07:17:20.976Z,62.56
2018-03-01T07:18:25.977Z,62.58
2018-03-01T07:19:31.005Z,62.05
2018-03-01T07:20:36.369Z,61.74
2018-03-01T07:21:42.047Z,61.24
2018-03-01T07:22:47.258Z,61.03
2018-03-01T07:23:52.545Z,60.99
2018-03-01T07:24:58.035Z,60.69
2018-03-01T07:26:03.695Z,60.20
2018-03-01T07:27:08.750Z,59.77
2018-03-01T07:28:14.291Z,60.05
2018-03-01T07:29:19.308Z,59.82
2018-03-01T07:30:24.874Z,60.07
2018-03-01T07:31:30.101Z,59.88
2018-03-01T07:33:43.689Z,59.67
2018-03-01T07:34:49.303Z,59.46
2018-03-01T07:35:55.108Z,59.18
2018-03-01T07:37:00.100Z,59.04
2018-03-01T07:38:06.044Z,58.44
2018-03-01T07:39:10.993Z,57.52
2018-03-01T07:40:16.083Z,57.26
2018-03-01T07:41:21.430Z,57.18
2018-03-01T07:42:26.501Z,57.46
2018-03-01T07:43:31.344Z,57.60
2018-03-01T07:44:36.227Z,57.36
2018-03-01T07:45:41.405Z,56.87
2018-03-01T07:46:46.415Z,56.75
2018-03-01T07:47:51.630Z,57.21
2018-03-01T07:48:56.728Z,57.10
2018-03-01T07:50:02.560Z,56.61
2018-03-01T07:51:07.600Z,56.56
2018-03-01T07:52:13.537Z,56.37
2018-03-01T07:53:18.399Z,56.44
2018-03-01T07:54:23.432Z,55.39
2018-03-01T07:55:28.601Z,55.14
2018-03-01T07:56:33.871Z,55.14
2018-03-01T07:57:38.872Z,54.60
2018-03-01T07:58:43.909Z,54.35
2018-03-01T07:59:48.750Z,54.27
2018-03-01T08:00:54.301Z,54.56
2018-03-01T08:01:59.185Z,54.14
2018-03-01T08:03:04.384Z,54.07
2018-03-01T08:04:09.218Z,54.45
2018-03-01T08:05:14.224Z,54.83
2018-03-01T08:06:19.629Z,56.57
2018-03-01T08:07:24.582Z,53.86
2018-03-01T08:08:30.397Z,53.44
2018-03-01T08:09:35.273Z,53.48
2018-03-01T08:10:40.398Z,51.45
2018-03-01T08:11:45.318Z,51.66
2018-03-01T08:12:50.510Z,54.92
2018-03-01T08:13:55.459Z,54.08
2018-03-01T08:15:00.553Z,51.76
2018-03-01T08:16:05.482Z,50.78
2018-03-01T08:17:10.545Z,50.06
2018-03-01T08:18:15.695Z,48.94
2018-03-01T08:19:20.364Z,48.47
2018-03-01T08:20:25.058Z,48.24
2018-03-01T08:21:29.931Z,50.12
2018-03-01T08:22:34.873Z,50.83
2018-03-01T08:23:40.056Z,50.00
2018-03-01T08:24:45.283Z,49.23
2018-03-01T08:25:50.005Z,48.76
2018-03-01T08:26:56.789Z,47.71
2018-03-01T08:28:01.870Z,47.72
2018-03-01T08:29:06.879Z,47.22
2018-03-01T08:30:13.850Z,47.27
2018-03-01T08:31:19.094Z,47.01
2018-03-01T08:32:23.926Z,46.27
2018-03-01T08:33:28.768Z,47.34
2018-03-01T08:34:33.564Z,46.58
2018-03-01T08:35:38.341Z,47.18
2018-03-01T08:36:43.299Z,46.03
2018-03-01T08:37:48.557Z,45.28
2018-03-01T08:38:55.500Z,45.71
2018-03-01T08:40:01.125Z,45.81
2018-03-01T08:41:05.883Z,45.57
2018-03-01T08:42:10.796Z,45.60
2018-03-01T08:43:15.718Z,45.20
2018-03-01T08:44:20.864Z,45.20
2018-03-01T08:45:26.031Z,45.45
2018-03-01T08:46:31.396Z,44.53
2018-03-01T08:47:39.499Z,43.96
2018-03-01T08:48:44.502Z,44.12
2018-03-01T08:49:49.450Z,44.28
2018-03-01T08:50:55.558Z,44.27
2018-03-01T08:52:00.770Z,44.46
2018-03-01T08:53:05.764Z,44.88
2018-03-01T08:54:10.586Z,43.95
2018-03-01T08:55:15.461Z,44.05
2018-03-01T08:56:20.458Z,44.18
2018-03-01T08:57:26.381Z,43.90
2018-03-01T08:58:31.547Z,43.16
2018-03-01T08:59:36.494Z,42.85
2018-03-01T09:00:41.771Z,41.98
2018-03-01T09:01:47.334Z,41.33
2018-03-01T09:02:52.077Z,40.96
2018-03-01T09:03:57.011Z,41.61
2018-03-01T09:05:02.028Z,41.97
2018-03-01T09:06:06.870Z,41.83
2018-03-01T09:07:11.766Z,41.27
2018-03-01T09:08:16.589Z,42.14
2018-03-01T09:09:21.639Z,42.44
2018-03-01T09:10:26.949Z,42.29
2018-03-01T09:11:31.831Z,41.79
2018-03-01T09:12:36.635Z,41.59
2018-03-01T09:13:41.795Z,42.21
2018-03-01T09:14:46.598Z,41.72
2018-03-01T09:15:52.064Z,41.55
2018-03-01T09:16:57.296Z,41.29
2018-03-01T09:18:03.201Z,41.07
2018-03-01T09:19:08.050Z,40.99
2018-03-01T09:20:13.035Z,41.23
2018-03-01T09:21:17.913Z,41.25
2018-03-01T09:22:22.890Z,41.36
2018-03-01T09:24:41.133Z,41.06
2018-03-01T09:25:45.969Z,40.94
2018-03-01T09:26:51.057Z,40.94
2018-03-01T09:27:55.890Z,40.30
2018-03-01T09:29:01.180Z,40.75
2018-03-01T09:30:07.482Z,40.79
2018-03-01T09:31:12.492Z,41.14
2018-03-01T09:32:17.430Z,40.41
2018-03-01T09:33:22.183Z,40.33
2018-03-01T09:34:27.133Z,39.89
2018-03-01T09:35:32.118Z,40.15
2018-03-01T09:36:37.306Z,40.38
2018-03-01T09:37:42.103Z,40.63
2018-03-01T09:38:46.942Z,40.44
2018-03-01T09:39:51.773Z,39.95
2018-03-01T09:40:56.499Z,39.56
2018-03-01T09:42:01.967Z,39.28
2018-03-01T09:43:07.040Z,39.39
2018-03-01T09:44:11.734Z,39.95
2018-03-01T09:45:16.577Z,41.10
2018-03-01T09:46:21.340Z,40.42
2018-03-01T09:47:26.109Z,39.24
2018-03-01T09:48:30.991Z,39.43
2018-03-01T09:49:35.806Z,39.17
2018-03-01T09:50:40.706Z,38.77
2018-03-01T09:51:45.388Z,39.20
2018-03-01T09:52:50.349Z,40.15
2018-03-01T09:53:55.250Z,40.33
2018-03-01T09:55:00.090Z,42.50
2018-03-01T09:56:05.285Z,39.13
2018-03-01T09:57:10.055Z,40.17
2018-03-01T09:58:15.160Z,39.50
2018-03-01T09:59:20.401Z,38.21
2018-03-01T10:00:25.937Z,37.83
2018-03-01T10:01:31.864Z,38.64
2018-03-01T10:02:36.868Z,38.97
2018-03-01T10:03:41.813Z,38.58
2018-03-01T10:04:46.789Z,38.62
2018-03-01T10:05:51.701Z,38.73
2018-03-01T10:06:56.673Z,38.89
2018-03-01T10:08:01.531Z,37.47
2018-03-01T10:09:06.682Z,37.86
2018-03-01T10:10:11.508Z,40.57
2018-03-01T10:11:16.407Z,42.04
2018-03-01T10:12:21.408Z,40.26
2018-03-01T10:13:26.250Z,37.87
2018-03-01T10:14:30.957Z,37.08
2018-03-01T10:15:36.406Z,38.81
2018-03-01T10:16:41.349Z,41.16
2018-03-01T10:17:46.256Z,38.28
2018-03-01T10:18:51.123Z,36.21
2018-03-01T10:19:56.323Z,36.36
2018-03-01T10:21:01.662Z,39.42
2018-03-01T10:22:06.733Z,37.13
2018-03-01T10:23:11.707Z,36.39
2018-03-01T10:24:16.485Z,38.00
2018-03-01T10:25:21.307Z,38.66
2018-03-01T10:26:26.119Z,35.20
2018-03-01T10:27:31.500Z,35.32
2018-03-01T10:28:39.672Z,36.61
2018-03-01T10:29:48.289Z,38.20
2018-03-01T10:30:53.984Z,37.04
2018-03-01T10:31:59.437Z,39.23
2018-03-01T10:33:04.301Z,38.00
2018-03-01T10:34:09.054Z,35.82
2018-03-01T10:35:13.918Z,36.13
2018-03-01T10:36:18.837Z,40.51
2018-03-01T10:37:23.689Z,36.48
2018-03-01T10:38:28.543Z,35.94
2018-03-01T10:39:33.832Z,35.52
2018-03-01T10:40:38.733Z,35.09
2018-03-01T10:41:44.270Z,35.93
2018-03-01T10:42:49.032Z,36.54
2018-03-01T10:43:53.913Z,36.14
2018-03-01T10:44:58.661Z,35.09
2018-03-01T10:46:04.373Z,35.64
2018-03-01T10:47:09.177Z,35.40
2018-03-01T10:48:13.903Z,35.30
2018-03-01T10:49:18.727Z,39.16
2018-03-01T10:50:23.562Z,36.25
2018-03-01T10:51:28.454Z,35.38
2018-03-01T10:52:33.469Z,34.68
2018-03-01T10:53:38.450Z,37.42
2018-03-01T10:54:43.287Z,38.63
2018-03-01T10:55:48.104Z,36.08
2018-03-01T10:56:52.953Z,34.27
2018-03-01T10:57:57.747Z,35.90
2018-03-01T10:59:02.910Z,34.47
2018-03-01T11:00:09.582Z,35.76
2018-03-01T11:01:18.244Z,33.88
2018-03-01T11:02:22.957Z,34.56
2018-03-01T11:03:27.711Z,35.81
2018-03-01T11:04:32.632Z,36.26
2018-03-01T11:05:37.658Z,34.73
2018-03-01T11:06:42.650Z,37.09
2018-03-01T11:07:47.439Z,37.62
2018-03-01T11:08:52.297Z,34.62
2018-03-01T11:09:57.161Z,33.16
2018-03-01T11:11:02.305Z,33.38
2018-03-01T11:12:07.956Z,33.74
2018-03-01T11:13:12.922Z,34.46
2018-03-01T11:14:17.816Z,33.92
2018-03-01T11:15:23.223Z,33.78
2018-03-01T11:16:27.937Z,35.08
2018-03-01T11:17:33.048Z,33.37
2018-03-01T11:18:37.975Z,33.01
2018-03-01T11:19:42.988Z,32.97
2018-03-01T11:20:47.921Z,33.04
2018-03-01T11:21:53.022Z,33.09
2018-03-01T11:22:57.989Z,32.37
2018-03-01T11:24:03.140Z,32.13
2018-03-01T11:25:07.874Z,32.57
2018-03-01T11:26:12.715Z,31.89
2018-03-01T11:27:17.502Z,33.10
2018-03-01T11:28:22.475Z,32.47
2018-03-01T11:29:27.321Z,32.19
2018-03-01T11:30:32.164Z,32.13
2018-03-01T11:31:37.049Z,32.42
2018-03-01T11:32:41.844Z,34.30
2018-03-01T11:33:46.699Z,34.84
2018-03-01T11:34:51.727Z,32.24
2018-03-01T11:35:56.464Z,36.36
2018-03-01T11:37:01.235Z,33.47
2018-03-01T11:38:06.008Z,33.40
2018-03-01T11:39:10.909Z,32.04
2018-03-01T11:40:15.725Z,30.93
2018-03-01T11:41:20.400Z,31.25
2018-03-01T11:42:25.474Z,31.57
2018-03-01T11:43:30.191Z,32.54
2018-03-01T11:44:35.031Z,31.92
2018-03-01T11:45:40.125Z,31.80
2018-03-01T11:46:44.810Z,31.16
2018-03-01T11:47:49.644Z,31.46
2018-03-01T11:48:54.728Z,30.75
2018-03-01T11:49:59.601Z,30.89
2018-03-01T11:51:04.485Z,31.01
2018-03-01T11:52:09.397Z,31.49
2018-03-01T11:53:14.104Z,31.84
2018-03-01T11:54:19.057Z,32.98
2018-03-01T11:55:23.833Z,38.27
2018-03-01T11:56:28.551Z,34.51
2018-03-01T11:57:33.216Z,32.16
2018-03-01T11:58:37.884Z,34.38
2018-03-01T11:59:42.695Z,32.23
2018-03-01T12:00:47.876Z,35.06
2018-03-01T12:01:53.360Z,32.75
2018-03-01T12:02:58.503Z,32.32
2018-03-01T12:04:03.671Z,31.89
2018-03-01T12:05:08.399Z,32.17
2018-03-01T12:06:13.245Z,31.52
2018-03-01T12:07:18.930Z,32.33
2018-03-01T12:08:24.046Z,31.42
2018-03-01T12:09:28.802Z,31.40
2018-03-01T12:10:33.650Z,31.57
2018-03-01T12:11:38.417Z,32.09
2018-03-01T12:12:43.132Z,31.38
2018-03-01T12:13:49.011Z,31.46
2018-03-01T12:14:54.168Z,31.70
2018-03-01T12:15:58.965Z,35.16
2018-03-01T12:17:03.739Z,30.87
2018-03-01T12:18:08.550Z,33.02
2018-03-01T12:19:13.314Z,31.20
2018-03-01T12:20:18.126Z,29.92
2018-03-01T12:21:22.881Z,32.96
2018-03-01T12:22:27.695Z,31.93
2018-03-01T12:23:32.458Z,31.70
2018-03-01T12:24:37.123Z,31.61
2018-03-01T12:25:41.897Z,31.20
2018-03-01T12:26:46.764Z,31.26
2018-03-01T12:27:51.665Z,31.52
2018-03-01T12:28:56.364Z,31.31
2018-03-01T12:30:01.231Z,30.96
2018-03-01T12:31:06.675Z,32.04
2018-03-01T12:32:12.652Z,32.89
2018-03-01T12:33:17.393Z,33.00
2018-03-01T12:34:22.242Z,34.20
2018-03-01T12:35:28.299Z,31.91
2018-03-01T12:36:33.000Z,33.48
2018-03-01T12:37:37.744Z,30.20
2018-03-01T12:38:42.682Z,31.13
2018-03-01T12:39:47.494Z,30.77
2018-03-01T12:40:52.242Z,32.21
2018-03-01T12:41:56.962Z,30.67
2018-03-01T12:43:01.942Z,30.67
2018-03-01T12:44:06.671Z,30.50
2018-03-01T12:45:14.114Z,31.18
2018-03-01T12:46:19.413Z,30.28
2018-03-01T12:47:24.141Z,32.30
2018-03-01T12:48:28.800Z,32.04
2018-03-01T12:49:33.736Z,32.63
2018-03-01T12:50:38.646Z,32.29
2018-03-01T12:51:43.758Z,34.85
2018-03-01T12:52:48.621Z,30.74
2018-03-01T12:53:53.534Z,32.14
2018-03-01T12:54:58.443Z,30.43
2018-03-01T12:56:03.738Z,31.28
2018-03-01T12:57:08.926Z,31.20
2018-03-01T12:58:13.938Z,30.31
2018-03-01T12:59:18.776Z,30.71
2018-03-01T13:00:23.797Z,30.63
2018-03-01T13:01:28.676Z,30.18
2018-03-01T13:02:33.636Z,30.54
2018-03-01T13:03:39.688Z,30.47
2018-03-01T13:04:44.711Z,30.05
2018-03-01T13:05:49.601Z,30.07
2018-03-01T13:06:54.443Z,30.11
2018-03-01T13:07:59.384Z,31.31
2018-03-01T13:09:04.631Z,31.61
2018-03-01T13:10:09.826Z,32.31
2018-03-01T13:11:14.702Z,35.00
2018-03-01T13:12:20.557Z,31.82
2018-03-01T13:13:25.370Z,32.05
2018-03-01T13:14:30.450Z,31.31
2018-03-01T13:15:35.815Z,32.49
2018-03-01T13:16:40.772Z,32.96
2018-03-01T13:17:45.693Z,30.64
2018-03-01T13:18:50.637Z,30.91
2018-03-01T13:19:55.530Z,30.68
2018-03-01T13:21:00.611Z,31.15
2018-03-01T13:22:05.437Z,30.91
2018-03-01T13:23:11.601Z,31.44
2018-03-01T13:24:16.663Z,31.86
2018-03-01T13:25:21.548Z,32.05
2018-03-01T13:26:26.462Z,31.60
2018-03-01T13:27:31.398Z,31.46
2018-03-01T13:28:36.454Z,31.50
2018-03-01T13:29:41.343Z,32.31
2018-03-01T13:30:46.587Z,32.96
2018-03-01T13:31:51.626Z,33.69
2018-03-01T13:32:56.441Z,31.54
2018-03-01T13:34:01.478Z,32.68
2018-03-01T13:35:06.804Z,33.54
2018-03-01T13:36:11.667Z,32.95
2018-03-01T13:37:16.639Z,32.15
2018-03-01T13:38:21.525Z,32.08
2018-03-01T13:39:26.431Z,32.36
2018-03-01T13:40:31.270Z,31.96
2018-03-01T13:41:36.189Z,32.49
2018-03-01T13:42:41.084Z,31.93
2018-03-01T13:43:45.952Z,33.29
2018-03-01T13:44:50.764Z,33.74
2018-03-01T13:45:56.208Z,35.32
2018-03-01T13:47:01.252Z,34.00
2018-03-01T13:48:06.173Z,34.40
2018-03-01T13:49:12.203Z,36.51
2018-03-01T13:50:17.612Z,38.22
2018-03-01T13:51:22.707Z,39.76
2018-03-01T13:52:27.516Z,33.63
2018-03-01T13:53:32.323Z,32.67
2018-03-01T13:54:37.199Z,31.76
2018-03-01T13:55:42.130Z,32.70
2018-03-01T13:56:47.271Z,32.84
2018-03-01T13:57:52.031Z,33.72
2018-03-01T13:58:56.819Z,34.28
2018-03-01T14:00:03.845Z,34.29
2018-03-01T14:01:09.338Z,33.91
2018-03-01T14:02:15.113Z,35.38
2018-03-01T14:03:20.454Z,34.33
2018-03-01T14:04:25.395Z,34.98
2018-03-01T14:05:30.362Z,33.43
2018-03-01T14:06:35.510Z,35.88
2018-03-01T14:07:40.495Z,35.87
2018-03-01T14:08:45.419Z,35.10
2018-03-01T14:09:51.543Z,34.05
2018-03-01T14:10:56.506Z,33.75
2018-03-01T14:12:01.540Z,33.42